Valdese, NC

10:51 AM EST on February 11, 2016 (GMT -0500)
BurkeWeather.com | | Change Station
CLOSE
Current Station
Personal Weather Station
Location: Valdese, NC
Elevation: 1193 ft
Nearby Weather Stations

Elev 1193 ft 35.73 °N, 81.59 °W | Updated 3 seconds ago

Clear
Clear
34.0 °F
Feels Like 34 °F
N
2.2
Wind Variable Wind from West
Gusts 7.2 mph

Today
High -- | Low -- °F
--% Chance of Precip.
Yesterday
High -- | Low -- °F
Precip. -- in
Pressure 30.20 in
Visibility 10.0 miles
Clouds Clear
Windchill 34 °F
Dew Point 16 °F
Humidity 48%
Rainfall 0.00 in
Snow Depth Not available.
7:17 AM 6:03 PM
Waxing Crescent, 12% visible
METAR KMRN 111535Z AUTO 25003KT 10SM CLR 00/M11 A3020 RMK AO2 T00001114
Pressure 30.20 in
Visibility 10.0 miles
Clouds Clear
Windchill 34 °F
Dew Point 16 °F
Humidity 48%
Rainfall 0.00 in
Snow Depth Not available.
7:17 AM 6:03 PM
Waxing Crescent, 12% visible
METAR KMRN 111535Z AUTO 25003KT 10SM CLR 00/M11 A3020 RMK AO2 T00001114

10-Day Weather Forecast

Almanac

Astronomy

Feb. 11, 2016 Rise Set
Actual Time
Civil Twilight
Nautical Twilight
Astronomical Twilight
Moon
Length of Visible Light
Length of Day
Tomorrow will be .
, % of the Moon is Illuminated

Today's Extremes

State Highs State Lows

Community

WunderPhotos

Upload Photos

1,892,081 photos uploaded!

WunderBlog® & News

Nearby

Air Quality

  Air Quality AQ Index Pollutant
Not available.

Snow Depth

Station Depth Elevation

Earthquake Activity

City Distance Mag. Time & Date
Minimum magnitude displayed is 2.5.

Coastal Water Temperatures

Place Temperature

Stations

Nearby Weather Stations

Station Location Temp. Windchill Dew Point Humidity Wind Precip. Elev Updated Type
                   

Watches & Warnings

There are currently no watches in effect.